Time;durP1;ratioP1;P1;durP2;ratioP2;P2;SDS_P1;SDS_P2;PMS_P1;PMS_P2;Temp;Humidity;BMP_temperature;BMP_pressure;BME280_temperature;BME280_humidity;BME280_pressure;Samples;Min_cycle;Max_cycle;Signal;HPM_P1;HPM_P2
2022/02/07 00:00:40;;;;;;;0.60;0.50;;;;;;;;;;5014202;28;24403;-59
2022/02/07 00:05:36;;;;;;;0.50;0.50;;;;;;;;;;5030304;28;24748;-54
2022/02/07 00:08:01;;;;;;;0.52;0.52;;;;;;;;;;5036369;28;24957;-54
2022/02/07 00:10:27;;;;;;;0.60;0.60;;;;;;;;;;5039102;28;24554;-54
2022/02/07 00:12:52;;;;;;;2.50;0.80;;;;;;;;;;5042097;28;24501;-55
2022/02/07 00:15:18;;;;;;;1.30;0.70;;;;;;;;;;5031721;28;24430;-54
2022/02/07 00:17:43;;;;;;;1.50;0.60;;;;;;;;;;5028593;28;24447;-57
2022/02/07 00:20:14;;;;;;;1.10;0.40;;;;;;;;;;5039269;28;24420;-57
2022/02/07 00:22:39;;;;;;;0.60;0.50;;;;;;;;;;5041015;28;24840;-57
2022/02/07 00:25:05;;;;;;;0.50;0.50;;;;;;;;;;5028315;28;24989;-57
2022/02/07 00:27:30;;;;;;;0.50;0.40;;;;;;;;;;5033393;28;24443;-57
2022/02/07 00:29:55;;;;;;;0.90;0.40;;;;;;;;;;5037249;28;24825;-57
2022/02/07 00:32:20;;;;;;;0.40;0.40;;;;;;;;;;5028520;28;24404;-57
2022/02/07 00:34:45;;;;;;;0.60;0.40;;;;;;;;;;5031175;28;24446;-57
2022/02/07 00:37:10;;;;;;;0.80;0.50;;;;;;;;;;5040346;28;24422;-58
2022/02/07 00:39:44;;;;;;;1.20;0.50;;;;;;;;;;5027699;28;24478;-57
2022/02/07 00:42:19;;;;;;;1.10;0.60;;;;;;;;;;5028148;28;24798;-57
2022/02/07 00:44:46;;;;;;;0.50;0.40;;;;;;;;;;5026310;28;24420;-57
2022/02/07 00:47:11;;;;;;;0.68;0.43;;;;;;;;;;5040171;28;24422;-58
2022/02/07 00:49:36;;;;;;;0.60;0.50;;;;;;;;;;5028090;28;24400;-57
2022/02/07 00:52:01;;;;;;;0.50;0.50;;;;;;;;;;5030973;28;24418;-57
2022/02/07 00:54:27;;;;;;;0.40;0.30;;;;;;;;;;5027644;28;24942;-55
2022/02/07 00:56:52;;;;;;;0.40;0.40;;;;;;;;;;5038035;28;24477;-56
2022/02/07 00:59:17;;;;;;;0.40;0.40;;;;;;;;;;5036368;28;25042;-56
2022/02/07 01:01:43;;;;;;;0.50;0.40;;;;;;;;;;5036798;28;24744;-57
2022/02/07 01:04:08;;;;;;;0.50;0.50;;;;;;;;;;5027657;28;24498;-57
2022/02/07 01:06:33;;;;;;;0.80;0.70;;;;;;;;;;5027601;28;24523;-56
2022/02/07 01:09:12;;;;;;;0.53;0.53;;;;;;;;;;5036530;28;24980;-57
2022/02/07 01:14:35;;;;;;;1.20;0.90;;;;;;;;;;5038655;28;24454;-57
2022/02/07 01:18:01;;;;;;;1.42;1.10;;;;;;;;;;5042140;28;24442;-57
2022/02/07 01:20:30;;;;;;;1.40;1.30;;;;;;;;;;5027431;28;24415;-56
2022/02/07 01:50:48;;;;;;;2.50;1.30;;;;;;;;;;5036496;28;24506;-58
2022/02/07 01:56:11;;;;;;;1.13;1.00;;;;;;;;;;5038251;28;24457;-57
2022/02/07 01:58:37;;;;;;;2.23;1.20;;;;;;;;;;5033710;28;24833;-57
2022/02/07 02:01:02;;;;;;;2.80;1.33;;;;;;;;;;5031574;28;24962;-57
2022/02/07 02:03:27;;;;;;;1.83;1.10;;;;;;;;;;5022831;28;24482;-56
2022/02/07 02:05:53;;;;;;;1.70;1.00;;;;;;;;;;5035378;28;24511;-57
2022/02/07 02:08:19;;;;;;;1.10;1.10;;;;;;;;;;5030881;28;24574;-57
2022/02/07 02:10:47;;;;;;;2.00;1.10;;;;;;;;;;5034556;28;24400;-57
2022/02/07 02:13:17;;;;;;;1.67;1.27;;;;;;;;;;5031765;28;24516;-57
2022/02/07 02:21:51;;;;;;;1.80;1.05;;;;;;;;;;5038167;28;24411;-58
2022/02/07 02:35:17;;;;;;;2.72;1.27;;;;;;;;;;5038973;28;25059;-56
2022/02/07 02:37:44;;;;;;;2.10;1.20;;;;;;;;;;5039909;28;24396;-57
2022/02/07 02:45:34;;;;;;;2.95;1.13;;;;;;;;;;5033207;28;24486;-57
2022/02/07 02:48:03;;;;;;;2.20;1.10;;;;;;;;;;5042893;28;24447;-56
2022/02/07 02:50:33;;;;;;;4.20;1.30;;;;;;;;;;5037502;28;24455;-57
2022/02/07 02:53:00;;;;;;;1.50;1.40;;;;;;;;;;5030684;28;24933;-57
2022/02/07 02:55:25;;;;;;;3.30;1.47;;;;;;;;;;5036916;28;24415;-57
2022/02/07 02:57:50;;;;;;;3.30;1.23;;;;;;;;;;5031591;28;24438;-57
2022/02/07 03:00:15;;;;;;;2.73;1.23;;;;;;;;;;5037861;28;24455;-57
2022/02/07 03:02:41;;;;;;;1.87;1.10;;;;;;;;;;5038806;28;24511;-57
2022/02/07 03:05:06;;;;;;;2.08;1.30;;;;;;;;;;5030427;28;24454;-58
2022/02/07 03:07:31;;;;;;;2.63;1.40;;;;;;;;;;5036930;28;24499;-58
2022/02/07 03:09:59;;;;;;;2.33;1.40;;;;;;;;;;5029868;28;24495;-57
2022/02/07 03:12:25;;;;;;;1.70;1.38;;;;;;;;;;5041078;28;24426;-57
2022/02/07 03:14:50;;;;;;;1.63;1.30;;;;;;;;;;5037891;28;24591;-57
2022/02/07 03:17:16;;;;;;;3.17;1.37;;;;;;;;;;5036140;28;24518;-57
2022/02/07 03:19:41;;;;;;;2.10;1.10;;;;;;;;;;5035894;28;24424;-57
2022/02/07 03:22:07;;;;;;;1.50;1.10;;;;;;;;;;5032081;28;24495;-57
2022/02/07 03:24:32;;;;;;;2.00;1.15;;;;;;;;;;5029628;28;24431;-57
2022/02/07 03:26:57;;;;;;;3.50;1.23;;;;;;;;;;5035624;28;24416;-58
2022/02/07 03:29:22;;;;;;;2.77;1.10;;;;;;;;;;5040312;28;24419;-57
2022/02/07 03:31:47;;;;;;;2.03;1.10;;;;;;;;;;5032911;28;24410;-58
2022/02/07 03:34:12;;;;;;;1.30;1.10;;;;;;;;;;5033013;28;24439;-57
2022/02/07 03:36:38;;;;;;;1.90;1.20;;;;;;;;;;5033294;28;25222;-57
2022/02/07 03:39:04;;;;;;;2.10;1.30;;;;;;;;;;5039663;28;24461;-57
2022/02/07 03:41:30;;;;;;;1.90;1.10;;;;;;;;;;5039020;28;24513;-57
2022/02/07 03:43:55;;;;;;;1.30;1.20;;;;;;;;;;5030611;28;24427;-57
2022/02/07 03:46:21;;;;;;;2.20;1.10;;;;;;;;;;5032613;28;24424;-57
2022/02/07 03:48:46;;;;;;;3.05;1.23;;;;;;;;;;5038862;28;25343;-57
2022/02/07 03:51:11;;;;;;;1.48;1.10;;;;;;;;;;5028793;28;24692;-58
2022/02/07 03:53:36;;;;;;;3.13;0.90;;;;;;;;;;5038124;28;24477;-57
2022/02/07 03:56:01;;;;;;;2.10;1.40;;;;;;;;;;5036768;28;24415;-57
2022/02/07 03:58:26;;;;;;;2.60;1.10;;;;;;;;;;5037562;28;24485;-58
2022/02/07 04:00:53;;;;;;;2.33;1.10;;;;;;;;;;5031764;28;24424;-58
2022/02/07 04:03:21;;;;;;;2.75;1.20;;;;;;;;;;5035864;28;24431;-57
2022/02/07 04:05:51;;;;;;;4.32;1.40;;;;;;;;;;5035184;28;24447;-57
2022/02/07 04:08:17;;;;;;;4.97;1.20;;;;;;;;;;5028851;28;24783;-57
2022/02/07 04:11:01;;;;;;;2.20;1.30;;;;;;;;;;5038851;28;24410;-57
2022/02/07 04:13:32;;;;;;;2.42;1.30;;;;;;;;;;5032577;28;25048;-57
2022/02/07 04:15:58;;;;;;;2.97;1.30;;;;;;;;;;5033970;28;24412;-57
2022/02/07 04:18:27;;;;;;;2.90;1.10;;;;;;;;;;5030415;28;24519;-58
2022/02/07 04:20:52;;;;;;;2.75;1.20;;;;;;;;;;5041740;28;24502;-58
2022/02/07 04:23:17;;;;;;;2.93;1.33;;;;;;;;;;5035856;28;24503;-58
2022/02/07 04:25:43;;;;;;;3.58;1.35;;;;;;;;;;5029339;28;24465;-57
2022/02/07 04:28:08;;;;;;;2.90;1.50;;;;;;;;;;5034505;28;24820;-57
2022/02/07 04:30:33;;;;;;;2.30;1.10;;;;;;;;;;5030986;28;24408;-57
2022/02/07 04:32:58;;;;;;;3.07;1.20;;;;;;;;;;5028732;28;24420;-57
2022/02/07 04:35:23;;;;;;;3.70;1.20;;;;;;;;;;5027831;28;24430;-58
2022/02/07 04:37:48;;;;;;;2.30;1.10;;;;;;;;;;5030786;28;24536;-58
2022/02/07 04:40:13;;;;;;;3.50;1.30;;;;;;;;;;5033890;28;24427;-57
2022/02/07 04:42:39;;;;;;;2.33;1.20;;;;;;;;;;5047497;28;25031;-58
2022/02/07 04:50:31;;;;;;;3.55;1.20;;;;;;;;;;5031732;28;24415;-58
2022/02/07 04:53:13;;;;;;;3.75;1.30;;;;;;;;;;5028289;28;24487;-58
2022/02/07 05:03:24;;;;;;;3.05;1.23;;;;;;;;;;5032556;28;24669;-58
2022/02/07 05:13:48;;;;;;;2.60;1.40;;;;;;;;;;5035150;28;24490;-55
2022/02/07 05:16:24;;;;;;;2.90;1.50;;;;;;;;;;5030685;28;24408;-56
2022/02/07 05:18:53;;;;;;;3.40;1.40;;;;;;;;;;5032501;28;24407;-57
2022/02/07 05:21:19;;;;;;;3.20;1.30;;;;;;;;;;5028079;28;24474;-56
2022/02/07 05:23:44;;;;;;;3.40;1.43;;;;;;;;;;5035566;28;25030;-56
2022/02/07 05:26:09;;;;;;;3.50;1.50;;;;;;;;;;5035262;28;24412;-56
2022/02/07 05:28:34;;;;;;;3.93;1.40;;;;;;;;;;5035920;28;25039;-57
2022/02/07 05:30:59;;;;;;;3.20;1.50;;;;;;;;;;5030575;28;24415;-57
2022/02/07 05:33:25;;;;;;;3.60;1.60;;;;;;;;;;5036398;28;25018;-57
2022/02/07 05:35:50;;;;;;;3.25;1.80;;;;;;;;;;5030924;28;24504;-57
2022/02/07 05:38:15;;;;;;;2.80;1.80;;;;;;;;;;5030002;28;24480;-57
2022/02/07 05:40:47;;;;;;;3.80;1.58;;;;;;;;;;5025917;28;24767;-57
2022/02/07 05:43:15;;;;;;;4.38;1.80;;;;;;;;;;5027869;28;24447;-57
2022/02/07 05:45:40;;;;;;;3.13;1.67;;;;;;;;;;5024050;28;24981;-57
2022/02/07 05:48:05;;;;;;;3.13;1.60;;;;;;;;;;5019957;28;24739;-56
2022/02/07 05:50:30;;;;;;;3.97;1.90;;;;;;;;;;5023961;28;24415;-57
2022/02/07 05:52:57;;;;;;;3.30;1.60;;;;;;;;;;5023962;28;24799;-57
2022/02/07 05:55:22;;;;;;;2.30;1.60;;;;;;;;;;5037535;28;24531;-57
2022/02/07 05:57:47;;;;;;;7.80;1.90;;;;;;;;;;5036188;28;24511;-58
2022/02/07 06:00:12;;;;;;;4.28;1.70;;;;;;;;;;5040229;28;24498;-57
2022/02/07 06:02:37;;;;;;;5.60;1.60;;;;;;;;;;5027854;28;24451;-57
2022/02/07 06:05:03;;;;;;;3.47;1.55;;;;;;;;;;5020594;28;24837;-57
2022/02/07 06:07:28;;;;;;;4.10;1.70;;;;;;;;;;5030628;28;25027;-57
2022/02/07 06:09:53;;;;;;;4.10;1.98;;;;;;;;;;5039564;28;24834;-57
2022/02/07 06:12:18;;;;;;;4.63;1.63;;;;;;;;;;5035582;28;24805;-56
2022/02/07 06:14:44;;;;;;;4.32;1.80;;;;;;;;;;5023248;28;24484;-56
2022/02/07 06:17:10;;;;;;;2.80;1.40;;;;;;;;;;5026432;28;24774;-56
2022/02/07 06:19:36;;;;;;;5.22;1.90;;;;;;;;;;5024528;28;25041;-57
2022/02/07 06:22:01;;;;;;;2.13;1.50;;;;;;;;;;5032304;28;24585;-55
2022/02/07 06:24:26;;;;;;;4.07;1.75;;;;;;;;;;5034689;28;25001;-56
2022/02/07 06:26:51;;;;;;;2.40;1.60;;;;;;;;;;5039118;28;24981;-55
2022/02/07 06:29:16;;;;;;;4.15;1.70;;;;;;;;;;5035115;28;24419;-56
2022/02/07 06:31:41;;;;;;;2.17;1.70;;;;;;;;;;5044510;28;24434;-56
2022/02/07 06:34:08;;;;;;;3.40;1.60;;;;;;;;;;5046232;28;24942;-56
2022/02/07 06:36:33;;;;;;;5.53;1.80;;;;;;;;;;5046311;28;24392;-55
2022/02/07 06:38:58;;;;;;;2.77;1.60;;;;;;;;;;5045546;28;24438;-56
2022/02/07 06:41:23;;;;;;;2.93;1.30;;;;;;;;;;5045168;28;24469;-56
2022/02/07 06:43:49;;;;;;;4.47;1.60;;;;;;;;;;5046334;28;24548;-56
2022/02/07 06:46:14;;;;;;;4.90;2.00;;;;;;;;;;5046186;28;24477;-56
2022/02/07 06:48:40;;;;;;;2.47;1.20;;;;;;;;;;5035766;28;24427;-56
2022/02/07 06:51:05;;;;;;;2.10;1.40;;;;;;;;;;5028806;28;24985;-56
2022/02/07 06:53:30;;;;;;;2.73;1.43;;;;;;;;;;5029773;28;24992;-56
2022/02/07 06:55:55;;;;;;;3.17;1.47;;;;;;;;;;5037114;28;24572;-56
2022/02/07 06:58:20;;;;;;;2.65;1.48;;;;;;;;;;5030449;28;24899;-57
2022/02/07 07:00:46;;;;;;;3.22;1.50;;;;;;;;;;5036097;28;24395;-56
2022/02/07 07:03:16;;;;;;;3.30;1.20;;;;;;;;;;5050067;28;24455;-57
2022/02/07 07:05:41;;;;;;;2.97;1.70;;;;;;;;;;5043729;28;25028;-56
2022/02/07 07:08:06;;;;;;;2.95;1.58;;;;;;;;;;5029974;28;24578;-56
2022/02/07 07:10:32;;;;;;;3.23;1.60;;;;;;;;;;5030364;28;24392;-56
2022/02/07 07:13:03;;;;;;;2.10;1.43;;;;;;;;;;5033026;28;24503;-56
2022/02/07 07:15:39;;;;;;;3.50;1.90;;;;;;;;;;5029299;28;24574;-56
2022/02/07 07:18:04;;;;;;;5.15;1.52;;;;;;;;;;5031010;28;24424;-56
2022/02/07 07:20:29;;;;;;;3.25;1.70;;;;;;;;;;5029990;28;24839;-54
2022/02/07 07:22:57;;;;;;;4.32;1.70;;;;;;;;;;5040839;28;24410;-56
2022/02/07 07:25:23;;;;;;;3.17;1.60;;;;;;;;;;5049189;28;24820;-57
2022/02/07 07:27:58;;;;;;;3.97;1.70;;;;;;;;;;5033357;28;24404;-56
2022/02/07 07:30:26;;;;;;;3.90;1.98;;;;;;;;;;5027865;28;24420;-54
2022/02/07 07:32:52;;;;;;;3.85;2.10;;;;;;;;;;5031434;28;24416;-54
2022/02/07 07:35:17;;;;;;;2.08;1.60;;;;;;;;;;5029174;28;24430;-54
2022/02/07 07:37:42;;;;;;;4.07;1.70;;;;;;;;;;5032071;28;24839;-55
2022/02/07 07:40:08;;;;;;;2.63;2.03;;;;;;;;;;5040395;28;24423;-55
2022/02/07 07:42:33;;;;;;;7.37;3.00;;;;;;;;;;5046631;28;24474;-56
2022/02/07 07:44:58;;;;;;;6.60;4.43;;;;;;;;;;5048759;28;24976;-56
2022/02/07 07:47:28;;;;;;;9.00;5.23;;;;;;;;;;5048489;28;24965;-57
2022/02/07 07:50:10;;;;;;;4.60;2.20;;;;;;;;;;5047518;28;24411;-56
2022/02/07 07:52:59;;;;;;;3.08;2.35;;;;;;;;;;5048739;28;24402;-56
2022/02/07 08:01:15;;;;;;;6.40;4.60;;;;;;;;;;5046652;28;24821;-56
2022/02/07 08:03:42;;;;;;;4.35;2.15;;;;;;;;;;5048568;28;24768;-56
2022/02/07 08:08:40;;;;;;;6.03;3.23;;;;;;;;;;5048109;28;24454;-56
2022/02/07 08:11:10;;;;;;;5.82;2.40;;;;;;;;;;5028776;28;24392;-56
2022/02/07 08:13:36;;;;;;;4.28;2.10;;;;;;;;;;5027845;28;24415;-56
2022/02/07 08:16:01;;;;;;;4.22;2.17;;;;;;;;;;5026273;28;24701;-56
2022/02/07 08:18:26;;;;;;;3.40;1.70;;;;;;;;;;5044394;28;24411;-57
2022/02/07 08:20:51;;;;;;;5.40;3.33;;;;;;;;;;5048035;28;24675;-55
2022/02/07 08:23:17;;;;;;;3.10;1.70;;;;;;;;;;5047994;28;24395;-55
2022/02/07 08:25:42;;;;;;;4.03;2.30;;;;;;;;;;5046395;28;24441;-55
2022/02/07 08:28:09;;;;;;;2.20;1.98;;;;;;;;;;5048317;28;24435;-55
2022/02/07 08:30:34;;;;;;;2.47;1.98;;;;;;;;;;5046197;28;24422;-57
2022/02/07 08:33:00;;;;;;;3.10;2.10;;;;;;;;;;5047715;28;24388;-58
2022/02/07 08:35:26;;;;;;;2.13;1.90;;;;;;;;;;5045779;28;24543;-56
2022/02/07 08:37:51;;;;;;;2.60;1.80;;;;;;;;;;5047876;28;24491;-57
2022/02/07 08:40:16;;;;;;;6.47;5.67;;;;;;;;;;5047926;28;24426;-57
2022/02/07 08:42:42;;;;;;;2.67;2.47;;;;;;;;;;5047586;28;24910;-57
2022/02/07 08:45:07;;;;;;;2.40;2.20;;;;;;;;;;5044650;28;24424;-57
2022/02/07 08:47:32;;;;;;;2.67;1.90;;;;;;;;;;5027870;28;24474;-56
2022/02/07 08:49:59;;;;;;;2.30;1.97;;;;;;;;;;5027792;28;24771;-57
2022/02/07 08:52:25;;;;;;;3.80;2.30;;;;;;;;;;5028001;28;24412;-57
2022/02/07 08:54:51;;;;;;;2.20;1.90;;;;;;;;;;5027939;28;24830;-56
2022/02/07 08:57:39;;;;;;;2.20;2.10;;;;;;;;;;5040793;28;24414;-56
2022/02/07 09:07:51;;;;;;;2.42;1.60;;;;;;;;;;5045912;28;24504;-57
2022/02/07 09:10:16;;;;;;;2.60;1.80;;;;;;;;;;5047471;28;24403;-56
2022/02/07 09:12:44;;;;;;;1.60;1.50;;;;;;;;;;5038236;28;24461;-56
2022/02/07 09:17:53;;;;;;;1.60;1.50;;;;;;;;;;5035885;28;24516;-56
2022/02/07 09:20:18;;;;;;;1.43;1.30;;;;;;;;;;5047206;28;24514;-57
2022/02/07 09:22:43;;;;;;;1.50;1.40;;;;;;;;;;5047181;28;25202;-57
2022/02/07 09:25:08;;;;;;;1.83;1.73;;;;;;;;;;5046512;28;24411;-57
2022/02/07 09:27:36;;;;;;;1.70;1.60;;;;;;;;;;5045339;28;24433;-57
2022/02/07 09:30:06;;;;;;;2.00;1.73;;;;;;;;;;5047325;28;24491;-57
2022/02/07 09:32:31;;;;;;;2.40;1.83;;;;;;;;;;5046949;28;25000;-57
2022/02/07 09:34:56;;;;;;;2.17;1.70;;;;;;;;;;5046543;28;24435;-56
2022/02/07 09:37:22;;;;;;;1.90;1.70;;;;;;;;;;5046579;28;24432;-54
2022/02/07 09:39:47;;;;;;;2.00;1.80;;;;;;;;;;5032287;28;24485;-56
2022/02/07 09:42:14;;;;;;;2.90;1.70;;;;;;;;;;5023056;28;24415;-55
2022/02/07 09:44:44;;;;;;;2.30;2.10;;;;;;;;;;5026528;28;24400;-55
2022/02/07 09:47:10;;;;;;;1.90;1.70;;;;;;;;;;5026909;28;24995;-55
2022/02/07 09:49:35;;;;;;;2.60;2.03;;;;;;;;;;5028055;28;24505;-55
2022/02/07 09:52:03;;;;;;;3.37;2.20;;;;;;;;;;5025966;28;24477;-56
2022/02/07 09:54:29;;;;;;;2.50;1.70;;;;;;;;;;5025820;28;24438;-57
2022/02/07 09:56:54;;;;;;;2.20;1.50;;;;;;;;;;5027147;28;24396;-57
2022/02/07 09:59:23;;;;;;;2.50;1.90;;;;;;;;;;5027695;28;24380;-56
2022/02/07 10:01:53;;;;;;;2.10;1.90;;;;;;;;;;5046595;28;24482;-56
2022/02/07 10:04:29;;;;;;;3.00;2.20;;;;;;;;;;5045979;28;24549;-56
2022/02/07 10:07:11;;;;;;;3.40;1.70;;;;;;;;;;5046684;28;24387;-57
2022/02/07 10:09:47;;;;;;;3.05;1.80;;;;;;;;;;5046399;28;24395;-56
2022/02/07 10:14:49;;;;;;;2.40;1.80;;;;;;;;;;5026770;28;24423;-55
2022/02/07 10:17:45;;;;;;;2.50;1.90;;;;;;;;;;5026441;28;24423;-55
2022/02/07 10:20:44;;;;;;;2.63;1.70;;;;;;;;;;5027989;28;24487;-56
2022/02/07 10:37:51;;;;;;;2.30;1.90;;;;;;;;;;5027855;28;25037;-56
2022/02/07 10:45:58;;;;;;;4.97;2.50;;;;;;;;;;5024550;28;24957;-55
2022/02/07 10:48:41;;;;;;;3.72;2.10;;;;;;;;;;5030027;28;24411;-55
2022/02/07 10:51:06;;;;;;;5.35;2.60;;;;;;;;;;5029917;28;24805;-55
2022/02/07 10:53:33;;;;;;;4.43;2.40;;;;;;;;;;5030072;28;24929;-56
2022/02/07 10:55:59;;;;;;;6.30;2.47;;;;;;;;;;5028260;28;24410;-55
2022/02/07 10:58:24;;;;;;;5.53;2.50;;;;;;;;;;5025569;28;24763;-55
2022/02/07 11:00:56;;;;;;;4.50;2.20;;;;;;;;;;5010559;28;25204;-55
2022/02/07 11:03:24;;;;;;;4.95;2.50;;;;;;;;;;5011140;28;24419;-55
2022/02/07 11:05:58;;;;;;;4.15;2.80;;;;;;;;;;5009988;28;24392;-55
2022/02/07 11:08:49;;;;;;;5.28;2.13;;;;;;;;;;5010034;28;24767;-56
2022/02/07 11:14:22;;;;;;;6.53;2.42;;;;;;;;;;5017950;28;24464;-56
2022/02/07 11:19:37;;;;;;;5.70;2.70;;;;;;;;;;5013707;28;24966;-55
2022/02/07 11:22:10;;;;;;;5.45;2.63;;;;;;;;;;5028185;28;24408;-55
2022/02/07 11:27:29;;;;;;;7.15;2.50;;;;;;;;;;5029575;28;24386;-56
2022/02/07 11:29:55;;;;;;;6.57;2.80;;;;;;;;;;5026427;28;25038;-56
2022/02/07 11:32:43;;;;;;;7.10;2.67;;;;;;;;;;5017088;28;24411;-56
2022/02/07 11:35:13;;;;;;;5.15;2.50;;;;;;;;;;5028941;28;24416;-55
2022/02/07 11:37:39;;;;;;;7.00;2.50;;;;;;;;;;5029338;28;24415;-56
2022/02/07 11:40:23;;;;;;;6.30;2.60;;;;;;;;;;5045035;28;24434;-56
2022/02/07 11:43:07;;;;;;;6.35;2.13;;;;;;;;;;5028796;28;24987;-55
2022/02/07 11:45:50;;;;;;;6.60;2.88;;;;;;;;;;5029076;28;24411;-55
2022/02/07 11:48:34;;;;;;;8.95;2.85;;;;;;;;;;5028743;28;24434;-55
2022/02/07 11:51:02;;;;;;;8.43;2.58;;;;;;;;;;5028543;28;24427;-56
2022/02/07 11:53:31;;;;;;;4.85;2.58;;;;;;;;;;5029249;28;24461;-56
2022/02/07 11:56:07;;;;;;;5.78;2.30;;;;;;;;;;5028896;28;24563;-56
2022/02/07 11:58:53;;;;;;;7.25;2.60;;;;;;;;;;5029839;28;24404;-56
2022/02/07 12:01:24;;;;;;;6.65;2.60;;;;;;;;;;5028449;28;24396;-56
2022/02/07 12:03:53;;;;;;;6.80;2.60;;;;;;;;;;5028563;28;24380;-56
2022/02/07 12:06:23;;;;;;;7.15;2.42;;;;;;;;;;5028333;28;24391;-56
2022/02/07 12:08:48;;;;;;;6.85;2.30;;;;;;;;;;5029832;28;24810;-56
2022/02/07 12:11:13;;;;;;;6.40;2.37;;;;;;;;;;5028502;28;24420;-56
2022/02/07 12:13:42;;;;;;;7.20;2.93;;;;;;;;;;5028809;28;24929;-56
2022/02/07 12:16:13;;;;;;;6.05;2.40;;;;;;;;;;5028480;28;24881;-56
2022/02/07 12:18:39;;;;;;;6.53;2.33;;;;;;;;;;5029645;28;24493;-56
2022/02/07 12:21:15;;;;;;;5.70;2.10;;;;;;;;;;5033565;28;24937;-56
2022/02/07 12:23:40;;;;;;;9.15;2.40;;;;;;;;;;5048102;28;24493;-56
2022/02/07 12:26:12;;;;;;;7.13;2.50;;;;;;;;;;5048241;28;25278;-56
2022/02/07 12:33:56;;;;;;;7.43;2.45;;;;;;;;;;5046130;28;24979;-56
2022/02/07 12:36:23;;;;;;;7.82;2.65;;;;;;;;;;5027734;28;24407;-57
2022/02/07 12:38:48;;;;;;;6.80;2.55;;;;;;;;;;5028170;28;24455;-56
2022/02/07 12:41:14;;;;;;;5.73;2.60;;;;;;;;;;5027997;28;24798;-55
2022/02/07 12:43:40;;;;;;;6.90;2.30;;;;;;;;;;5028224;28;24388;-56
2022/02/07 12:46:07;;;;;;;7.47;2.40;;;;;;;;;;5044429;28;24415;-56
2022/02/07 12:48:38;;;;;;;7.30;2.40;;;;;;;;;;5046975;28;21301;-56
2022/02/07 12:51:03;;;;;;;7.23;2.53;;;;;;;;;;5027387;28;24778;-57
2022/02/07 12:53:30;;;;;;;9.00;2.83;;;;;;;;;;5027235;28;24955;-56
2022/02/07 12:55:58;;;;;;;6.47;2.60;;;;;;;;;;5026918;28;24418;-56
2022/02/07 12:58:27;;;;;;;6.47;2.40;;;;;;;;;;5027336;28;24941;-56
2022/02/07 13:00:53;;;;;;;8.90;2.60;;;;;;;;;;5027226;28;24384;-56
2022/02/07 13:03:19;;;;;;;9.93;2.87;;;;;;;;;;5027022;28;24695;-56
2022/02/07 13:05:45;;;;;;;5.83;2.40;;;;;;;;;;5027426;28;24938;-56
2022/02/07 13:08:11;;;;;;;10.02;3.08;;;;;;;;;;5026923;28;24437;-57
2022/02/07 13:10:37;;;;;;;5.90;2.40;;;;;;;;;;5043781;28;24504;-57
2022/02/07 13:13:20;;;;;;;8.00;2.97;;;;;;;;;;5047256;28;24395;-56
2022/02/07 13:15:47;;;;;;;7.70;2.58;;;;;;;;;;5046990;28;24415;-56
2022/02/07 13:18:16;;;;;;;7.93;2.80;;;;;;;;;;5038759;28;24419;-56
2022/02/07 13:20:42;;;;;;;6.22;2.35;;;;;;;;;;5027074;28;24479;-57
2022/02/07 13:23:10;;;;;;;8.50;2.42;;;;;;;;;;5026818;28;24862;-57
2022/02/07 13:25:36;;;;;;;3.92;2.13;;;;;;;;;;5026554;28;24427;-57
2022/02/07 13:28:02;;;;;;;8.50;2.30;;;;;;;;;;5026847;28;24396;-56
2022/02/07 13:30:27;;;;;;;6.40;2.00;;;;;;;;;;5040163;28;24407;-56
2022/02/07 13:32:52;;;;;;;8.07;2.50;;;;;;;;;;5046530;28;24925;-57
2022/02/07 13:35:19;;;;;;;6.10;2.17;;;;;;;;;;5046103;28;24504;-57
2022/02/07 13:37:44;;;;;;;6.38;2.40;;;;;;;;;;5046773;28;24388;-57
2022/02/07 13:40:14;;;;;;;7.97;2.47;;;;;;;;;;5046431;28;24427;-57
2022/02/07 13:42:46;;;;;;;8.48;2.70;;;;;;;;;;5046166;28;24553;-57
2022/02/07 13:45:11;;;;;;;11.77;3.00;;;;;;;;;;5045490;28;24453;-57
2022/02/07 13:47:38;;;;;;;10.17;3.90;;;;;;;;;;5036360;28;24424;-56
2022/02/07 13:50:17;;;;;;;11.00;2.80;;;;;;;;;;5027132;28;24408;-56
2022/02/07 13:52:43;;;;;;;13.65;3.47;;;;;;;;;;5027083;28;24981;-57
2022/02/07 13:55:17;;;;;;;8.95;3.15;;;;;;;;;;5027017;28;24511;-55
2022/02/07 13:57:52;;;;;;;7.75;2.50;;;;;;;;;;5027914;28;24775;-55
2022/02/07 14:00:20;;;;;;;6.55;2.70;;;;;;;;;;5026823;28;24985;-56
2022/02/07 14:02:45;;;;;;;6.72;2.00;;;;;;;;;;5028682;28;24439;-55
2022/02/07 14:05:11;;;;;;;8.02;2.00;;;;;;;;;;5030806;28;24443;-56
2022/02/07 14:07:49;;;;;;;2.87;1.53;;;;;;;;;;5033145;28;24447;-57
2022/02/07 14:10:15;;;;;;;3.88;1.63;;;;;;;;;;5050761;28;24426;-56
2022/02/07 14:12:41;;;;;;;1.92;1.20;;;;;;;;;;5031540;28;24412;-56
2022/02/07 14:15:06;;;;;;;2.30;1.15;;;;;;;;;;5030307;28;24423;-56
2022/02/07 14:17:32;;;;;;;2.07;1.20;;;;;;;;;;5030761;28;24395;-56
2022/02/07 14:19:59;;;;;;;1.67;1.10;;;;;;;;;;5031763;28;24453;-57
2022/02/07 14:22:24;;;;;;;2.55;1.38;;;;;;;;;;5030743;28;24404;-60
2022/02/07 14:24:50;;;;;;;2.63;1.30;;;;;;;;;;5030440;28;24770;-57
2022/02/07 14:27:15;;;;;;;3.33;1.30;;;;;;;;;;5030607;28;24404;-56
2022/02/07 14:29:40;;;;;;;3.45;1.40;;;;;;;;;;5038888;28;24972;-55
2022/02/07 14:32:05;;;;;;;3.60;1.70;;;;;;;;;;5030661;28;24396;-56
2022/02/07 14:34:30;;;;;;;2.63;1.40;;;;;;;;;;5035472;28;24493;-55
2022/02/07 14:36:56;;;;;;;4.50;1.70;;;;;;;;;;5050258;28;24757;-55
2022/02/07 14:39:21;;;;;;;4.55;1.67;;;;;;;;;;5046344;28;24635;-55
2022/02/07 14:41:47;;;;;;;4.85;2.00;;;;;;;;;;5034023;28;24481;-55
2022/02/07 14:44:21;;;;;;;5.70;2.10;;;;;;;;;;5037297;28;24416;-56
2022/02/07 14:46:55;;;;;;;6.03;2.13;;;;;;;;;;5034805;28;24415;-55
2022/02/07 14:49:20;;;;;;;4.00;1.85;;;;;;;;;;5029910;28;24426;-56
2022/02/07 14:51:45;;;;;;;5.10;2.23;;;;;;;;;;5039222;28;24413;-56
2022/02/07 14:54:10;;;;;;;4.70;2.07;;;;;;;;;;5038638;28;24442;-56
2022/02/07 14:56:35;;;;;;;4.95;2.38;;;;;;;;;;5039771;28;25028;-56
2022/02/07 14:59:00;;;;;;;5.80;2.10;;;;;;;;;;5046457;28;24976;-56
2022/02/07 15:01:26;;;;;;;7.73;2.90;;;;;;;;;;5048782;28;24447;-55
2022/02/07 15:03:54;;;;;;;7.23;2.50;;;;;;;;;;5062020;28;24430;-56
2022/02/07 15:06:19;;;;;;;6.77;2.50;;;;;;;;;;5069519;28;25061;-56
2022/02/07 15:08:45;;;;;;;6.50;2.10;;;;;;;;;;5069257;28;24482;-57
2022/02/07 15:11:12;;;;;;;4.10;2.40;;;;;;;;;;5063320;28;24446;-55
2022/02/07 15:13:37;;;;;;;7.03;2.27;;;;;;;;;;5029006;28;25193;-56
2022/02/07 15:16:03;;;;;;;6.17;2.50;;;;;;;;;;5028997;28;25230;-57
2022/02/07 15:18:29;;;;;;;6.85;2.70;;;;;;;;;;5029548;28;24408;-56
2022/02/07 15:20:57;;;;;;;9.40;3.00;;;;;;;;;;5040805;28;24446;-57
2022/02/07 15:23:22;;;;;;;9.00;3.60;;;;;;;;;;5048295;28;24408;-56
2022/02/07 15:25:47;;;;;;;11.07;3.92;;;;;;;;;;5049053;28;24399;-56
2022/02/07 15:28:12;;;;;;;8.80;3.20;;;;;;;;;;5049259;28;24518;-56
2022/02/07 15:30:45;;;;;;;8.80;3.00;;;;;;;;;;5043741;28;24466;-55
2022/02/07 15:33:13;;;;;;;9.20;3.10;;;;;;;;;;5029646;28;24407;-56
2022/02/07 15:35:39;;;;;;;10.43;3.30;;;;;;;;;;5028900;28;24420;-56
2022/02/07 15:38:06;;;;;;;9.30;3.10;;;;;;;;;;5029023;28;24418;-57
2022/02/07 15:40:32;;;;;;;6.05;3.17;;;;;;;;;;5029282;28;24402;-57
2022/02/07 15:42:57;;;;;;;10.55;3.70;;;;;;;;;;5047414;28;24461;-57
2022/02/07 15:45:26;;;;;;;9.50;3.70;;;;;;;;;;5048349;28;24415;-57
2022/02/07 15:47:51;;;;;;;8.75;3.38;;;;;;;;;;5048934;28;24398;-56
2022/02/07 15:50:16;;;;;;;9.43;3.50;;;;;;;;;;5045655;28;25001;-57
2022/02/07 15:52:42;;;;;;;9.20;3.00;;;;;;;;;;5029710;28;24404;-57
2022/02/07 15:55:09;;;;;;;10.57;3.65;;;;;;;;;;5029049;28;24415;-57
2022/02/07 15:57:34;;;;;;;8.65;3.50;;;;;;;;;;5028963;28;24889;-57
2022/02/07 16:00:00;;;;;;;10.63;3.23;;;;;;;;;;5028690;28;24403;-57
2022/02/07 16:02:31;;;;;;;10.90;3.50;;;;;;;;;;5029017;28;24407;-58
2022/02/07 16:04:56;;;;;;;12.50;4.00;;;;;;;;;;5043834;28;24514;-58
2022/02/07 16:07:21;;;;;;;12.80;3.70;;;;;;;;;;5035286;28;24558;-58
2022/02/07 16:09:48;;;;;;;8.90;3.50;;;;;;;;;;5029164;28;24608;-58
2022/02/07 16:12:16;;;;;;;9.07;3.60;;;;;;;;;;5037511;28;24418;-58
2022/02/07 16:14:41;;;;;;;9.77;3.30;;;;;;;;;;5048196;28;24584;-58
2022/02/07 16:17:08;;;;;;;9.23;3.30;;;;;;;;;;5038950;28;24535;-60
2022/02/07 16:19:33;;;;;;;10.48;2.90;;;;;;;;;;5030584;28;24407;-58
2022/02/07 16:21:59;;;;;;;7.77;3.00;;;;;;;;;;5034079;28;25000;-59
2022/02/07 16:24:24;;;;;;;4.50;2.40;;;;;;;;;;5030909;28;24775;-63
2022/02/07 16:26:50;;;;;;;8.05;2.70;;;;;;;;;;5043165;28;24415;-60
2022/02/07 16:29:16;;;;;;;5.88;2.20;;;;;;;;;;5048036;28;24960;-59
2022/02/07 16:31:41;;;;;;;10.20;2.10;;;;;;;;;;5028019;28;24403;-59
2022/02/07 16:34:08;;;;;;;6.28;2.30;;;;;;;;;;5039726;28;24504;-59
2022/02/07 16:36:33;;;;;;;4.47;1.90;;;;;;;;;;5028095;28;24394;-58
2022/02/07 16:38:58;;;;;;;13.17;5.03;;;;;;;;;;5028037;28;24424;-59
2022/02/07 16:41:28;;;;;;;6.25;2.33;;;;;;;;;;5028211;28;24423;-58
2022/02/07 16:43:54;;;;;;;7.18;2.10;;;;;;;;;;5028148;28;25091;-59
2022/02/07 16:46:37;;;;;;;5.20;2.10;;;;;;;;;;5047191;28;24410;-58
2022/02/07 16:49:03;;;;;;;3.97;2.45;;;;;;;;;;5045654;28;24445;-59
2022/02/07 16:51:33;;;;;;;7.07;2.10;;;;;;;;;;5028134;28;24934;-58
2022/02/07 16:53:59;;;;;;;6.43;2.50;;;;;;;;;;5031351;28;25049;-58
2022/02/07 16:56:24;;;;;;;5.82;2.40;;;;;;;;;;5027415;28;24497;-58
2022/02/07 16:58:49;;;;;;;6.40;2.10;;;;;;;;;;5034755;28;24783;-58
2022/02/07 17:01:14;;;;;;;4.88;1.90;;;;;;;;;;5040346;28;25247;-58